Terminal Aerodrome Forecast
Issued by NWS

Home | Current Version | Previous Version | Graphics & Text | Print | Product List | Glossary Off
Versions: 1 2 3 4 5 6 7 8 9 10 11 12 13 14 15 16 17 18

665
FTUS43 KGRB 251944 AAA
TAFATW
TAF AMD
KATW 251944Z 2520/2618 26007G14KT P6SM SCT100 BKN200
     FM260000 27005KT P6SM SCT150 BKN200=

USA.gov is the U.S. government's official web portal to all federal, state and local government web resources and services.